Time;durP1;ratioP1;P1;durP2;ratioP2;P2;SDS_P1;SDS_P2;PMS_P1;PMS_P2;Temp;Humidity;BMP_temperature;BMP_pressure;BME280_temperature;BME280_humidity;BME280_pressure;Samples;Min_cycle;Max_cycle;Signal;HPM_P1;HPM_P2
2022/05/20 00:01:06;;;;;;;3.90;2.53;;;11.30;99.90;;;;;;6160899;23;20161;-83
2022/05/20 00:03:31;;;;;;;13.18;3.20;;;11.00;99.90;;;;;;6186481;23;20153;-83
2022/05/20 00:05:59;;;;;;;8.10;4.03;;;11.00;99.90;;;;;;6186742;23;20240;-82
2022/05/20 00:08:24;;;;;;;9.80;3.58;;;11.30;99.90;;;;;;6160480;23;20582;-82
2022/05/20 00:10:53;;;;;;;5.85;3.13;;;11.10;99.90;;;;;;6160254;23;20260;-83
2022/05/20 00:13:24;;;;;;;5.47;3.28;;;10.70;99.90;;;;;;6160235;23;20164;-83
2022/05/20 00:15:50;;;;;;;6.15;3.40;;;11.10;99.90;;;;;;6186447;23;20497;-82
2022/05/20 00:18:17;;;;;;;5.32;3.33;;;10.20;99.90;;;;;;6160473;23;20156;-82
2022/05/20 00:20:42;;;;;;;7.00;3.25;;;10.60;99.90;;;;;;6186042;23;20167;-82
2022/05/20 00:23:09;;;;;;;8.35;3.50;;;10.80;99.90;;;;;;6186242;23;20149;-82
2022/05/20 00:25:46;;;;;;;5.50;2.95;;;10.60;99.90;;;;;;6160178;23;20186;-83
2022/05/20 00:28:22;;;;;;;5.43;3.13;;;10.80;99.90;;;;;;6160490;23;20172;-82
2022/05/20 00:30:54;;;;;;;7.03;3.15;;;10.70;99.90;;;;;;6186385;23;20148;-83
2022/05/20 00:33:20;;;;;;;6.35;3.47;;;10.70;99.90;;;;;;6186779;23;20141;-83
2022/05/20 00:35:46;;;;;;;5.55;3.20;;;11.00;99.90;;;;;;6135602;23;20207;-83
2022/05/20 00:38:13;;;;;;;6.38;4.00;;;10.60;99.90;;;;;;6160148;23;20228;-83
2022/05/20 00:40:39;;;;;;;8.10;3.33;;;10.50;99.90;;;;;;6186277;23;20181;-84
2022/05/20 00:43:11;;;;;;;3.33;2.45;;;10.50;99.90;;;;;;6135823;23;20156;-83
2022/05/20 00:45:38;;;;;;;3.83;3.08;;;10.60;99.90;;;;;;6159778;23;20283;-83
2022/05/20 00:48:04;;;;;;;3.95;2.47;;;10.40;99.90;;;;;;6186402;23;20186;-83
2022/05/20 00:50:30;;;;;;;3.80;2.63;;;;;;;;;;6135651;23;20177;-83
2022/05/20 00:52:56;;;;;;;5.30;3.50;;;10.70;99.90;;;;;;6135520;23;20165;-83
2022/05/20 00:55:23;;;;;;;4.50;2.50;;;10.90;99.90;;;;;;6186168;23;20153;-83
2022/05/20 00:57:54;;;;;;;9.80;2.60;;;10.50;99.90;;;;;;6186369;23;20168;-83
2022/05/20 01:00:24;;;;;;;4.28;2.40;;;10.60;99.90;;;;;;6186509;23;20147;-83
2022/05/20 01:02:54;;;;;;;4.43;2.47;;;10.50;99.90;;;;;;6159815;23;20163;-83
2022/05/20 01:05:36;;;;;;;3.65;2.78;;;10.70;99.90;;;;;;6186220;23;20176;-83
2022/05/20 01:08:02;;;;;;;3.30;2.28;;;10.80;99.90;;;;;;6186289;23;20156;-83
2022/05/20 01:10:28;;;;;;;4.20;2.97;;;10.50;99.90;;;;;;6135433;23;20481;-82
2022/05/20 01:12:56;;;;;;;5.18;2.78;;;10.00;99.90;;;;;;6185948;23;20155;-83
2022/05/20 01:15:22;;;;;;;7.10;2.97;;;10.50;99.90;;;;;;6185944;23;20179;-83
2022/05/20 01:17:51;;;;;;;3.70;2.15;;;10.80;99.90;;;;;;6185538;23;20525;-82
2022/05/20 01:20:20;;;;;;;5.53;2.42;;;10.30;99.90;;;;;;6186056;23;20210;-82
2022/05/20 01:23:01;;;;;;;2.58;2.15;;;10.30;99.90;;;;;;6185874;23;20160;-82
2022/05/20 01:25:29;;;;;;;5.68;2.70;;;10.30;99.90;;;;;;6159867;23;20161;-83
2022/05/20 01:27:55;;;;;;;5.15;2.15;;;10.40;99.90;;;;;;6185797;23;20179;-83
2022/05/20 01:30:23;;;;;;;4.43;2.30;;;10.30;99.90;;;;;;6159675;23;20655;-83
2022/05/20 01:32:49;;;;;;;5.25;2.15;;;10.80;99.90;;;;;;6185831;23;20203;-82
2022/05/20 01:35:22;;;;;;;2.63;2.33;;;10.30;99.90;;;;;;6185941;23;20153;-82
2022/05/20 01:37:47;;;;;;;3.55;2.28;;;10.30;99.90;;;;;;6185487;23;20219;-82
2022/05/20 01:40:13;;;;;;;1.88;1.73;;;;;;;;;;6185635;23;20180;-82
2022/05/20 01:43:02;;;;;;;2.95;2.42;;;10.60;99.90;;;;;;6159399;23;20200;-88
2022/05/20 01:45:33;;;;;;;4.57;2.80;;;10.50;99.90;;;;;;6159194;23;20231;-83
2022/05/20 01:48:10;;;;;;;3.80;2.15;;;10.40;99.90;;;;;;6159532;23;20221;-83
2022/05/20 01:50:45;;;;;;;3.35;2.25;;;10.30;99.90;;;;;;6159879;23;20168;-83
2022/05/20 01:53:16;;;;;;;3.30;2.35;;;10.70;99.90;;;;;;6186542;23;20568;-82
2022/05/20 01:56:00;;;;;;;2.25;1.73;;;10.70;99.90;;;;;;6185356;23;20144;-84
2022/05/20 01:58:31;;;;;;;5.45;2.42;;;11.00;99.90;;;;;;6185535;23;20585;-83
2022/05/20 02:01:02;;;;;;;4.78;1.92;;;10.30;99.90;;;;;;6185326;23;20151;-83
2022/05/20 02:03:50;;;;;;;3.13;2.03;;;10.70;99.90;;;;;;6186084;23;20137;-82
2022/05/20 02:06:29;;;;;;;3.67;2.40;;;10.70;99.90;;;;;;6185563;23;20185;-83
2022/05/20 02:09:02;;;;;;;4.63;2.30;;;10.80;99.90;;;;;;6185832;23;20219;-83
2022/05/20 02:11:54;;;;;;;3.03;2.10;;;11.00;99.90;;;;;;6185753;23;20152;-82
2022/05/20 02:14:23;;;;;;;6.03;2.60;;;10.60;99.90;;;;;;6159262;23;20157;-82
2022/05/20 02:17:03;;;;;;;2.25;1.75;;;10.60;99.90;;;;;;6185509;23;20153;-82
2022/05/20 02:19:34;;;;;;;3.67;2.33;;;10.70;99.90;;;;;;6159570;23;20231;-82
2022/05/20 02:22:05;;;;;;;2.75;1.83;;;10.70;99.90;;;;;;6185589;23;20141;-82
2022/05/20 02:24:33;;;;;;;3.40;2.05;;;10.20;99.90;;;;;;6185651;23;20584;-83
2022/05/20 02:27:03;;;;;;;2.22;1.77;;;10.30;99.90;;;;;;6158815;23;20519;-83
2022/05/20 02:29:40;;;;;;;2.78;2.08;;;10.20;99.90;;;;;;6185928;23;20155;-83
2022/05/20 02:32:11;;;;;;;2.70;1.75;;;10.50;99.90;;;;;;6185445;23;20634;-83
2022/05/20 02:34:37;;;;;;;2.80;2.00;;;10.40;99.90;;;;;;6185756;23;20141;-83
2022/05/20 02:37:28;;;;;;;4.68;2.20;;;10.50;99.90;;;;;;6185487;23;20161;-83
2022/05/20 02:39:54;;;;;;;1.90;1.70;;;10.20;99.90;;;;;;6161036;23;20166;-83
2022/05/20 02:42:21;;;;;;;4.07;2.35;;;10.50;99.90;;;;;;6161173;23;20156;-82
2022/05/20 02:44:47;;;;;;;3.28;1.98;;;10.60;99.90;;;;;;6136372;23;20161;-87
2022/05/20 02:47:13;;;;;;;3.77;2.00;;;;;;;;;;6188165;23;20226;-82
2022/05/20 02:49:39;;;;;;;5.15;2.33;;;10.40;99.90;;;;;;6187569;23;20564;-83
2022/05/20 02:52:06;;;;;;;5.28;2.03;;;10.40;99.90;;;;;;6187344;23;20153;-82
2022/05/20 02:54:32;;;;;;;5.05;2.53;;;10.20;99.90;;;;;;6187785;23;20207;-83
2022/05/20 02:56:58;;;;;;;5.78;1.92;;;;;;;;;;6161140;23;20169;-82
2022/05/20 03:04:52;;;;;;;4.13;2.63;;;;;;;;;;6164689;23;20155;-83
2022/05/20 03:07:18;;;;;;;4.03;2.15;;;10.40;99.90;;;;;;6136385;23;20283;-83
2022/05/20 03:09:44;;;;;;;1.70;1.58;;;10.60;99.90;;;;;;6187236;23;20203;-83
2022/05/20 03:12:11;;;;;;;2.65;2.22;;;10.70;99.90;;;;;;6160873;23;20176;-83
2022/05/20 03:14:38;;;;;;;3.00;1.50;;;10.80;99.90;;;;;;6187272;23;20149;-83
2022/05/20 03:17:04;;;;;;;4.85;2.10;;;10.40;99.90;;;;;;6161071;23;20165;-83
2022/05/20 03:19:31;;;;;;;2.88;2.10;;;10.90;99.90;;;;;;6160843;23;20480;-83
2022/05/20 03:21:57;;;;;;;1.90;1.60;;;10.60;99.90;;;;;;6186927;23;20183;-83
2022/05/20 03:24:23;;;;;;;2.13;1.90;;;10.50;99.90;;;;;;6186953;23;20509;-84
2022/05/20 03:26:49;;;;;;;4.07;2.30;;;;;;;;;;6160969;23;20263;-83
2022/05/20 03:29:16;;;;;;;3.67;1.92;;;10.80;99.90;;;;;;6136300;23;20240;-82
2022/05/20 03:31:42;;;;;;;4.35;1.98;;;11.00;99.90;;;;;;6135484;23;20160;-84
2022/05/20 03:34:09;;;;;;;3.00;1.80;;;10.80;99.90;;;;;;6157588;23;20290;-84
2022/05/20 03:36:38;;;;;;;3.17;1.95;;;11.20;99.90;;;;;;6159272;23;20164;-82
2022/05/20 03:39:04;;;;;;;5.30;2.40;;;11.60;99.90;;;;;;6159207;23;20160;-82
2022/05/20 03:41:30;;;;;;;5.22;2.15;;;11.40;99.90;;;;;;6159476;23;20163;-82
2022/05/20 03:43:56;;;;;;;3.72;2.10;;;;;;;;;;6185071;23;20235;-82
2022/05/20 03:46:22;;;;;;;6.07;2.00;;;11.20;99.90;;;;;;6158960;23;20204;-83
2022/05/20 03:48:48;;;;;;;2.65;2.30;;;11.50;99.90;;;;;;6159459;23;20211;-82
2022/05/20 03:51:14;;;;;;;5.38;2.33;;;11.60;99.90;;;;;;6158869;23;20165;-82
2022/05/20 03:53:41;;;;;;;4.80;2.33;;;11.60;99.90;;;;;;6185855;23;20152;-83
2022/05/20 03:56:07;;;;;;;2.33;1.75;;;11.50;99.90;;;;;;6159554;23;20168;-83
2022/05/20 03:58:33;;;;;;;3.03;2.53;;;11.70;99.90;;;;;;6186391;23;20152;-83
2022/05/20 04:03:46;;;;;;;3.70;2.35;;;11.90;99.90;;;;;;6185528;23;20148;-84
2022/05/20 04:06:13;;;;;;;12.32;2.58;;;12.20;99.90;;;;;;6185953;23;20216;-83
2022/05/20 04:08:39;;;;;;;6.18;2.78;;;11.50;99.90;;;;;;6185587;23;20157;-84
2022/05/20 04:11:06;;;;;;;3.13;2.50;;;12.30;99.90;;;;;;6159204;23;20480;-83
2022/05/20 04:13:33;;;;;;;5.63;1.90;;;11.80;99.90;;;;;;6159087;23;20160;-83
2022/05/20 04:15:59;;;;;;;3.17;2.10;;;11.80;99.90;;;;;;6159950;23;20164;-83
2022/05/20 04:18:24;;;;;;;4.63;2.17;;;11.80;99.90;;;;;;6185535;23;20153;-84
2022/05/20 04:20:50;;;;;;;4.45;2.33;;;12.10;99.90;;;;;;6161538;23;20856;-83
2022/05/20 04:23:18;;;;;;;2.25;2.03;;;;;;;;;;6158374;23;20167;-85
2022/05/20 04:25:44;;;;;;;2.75;1.90;;;12.10;99.90;;;;;;6185398;23;20179;-83
2022/05/20 04:28:11;;;;;;;3.38;1.95;;;12.00;99.90;;;;;;6185056;23;20156;-82
2022/05/20 04:30:37;;;;;;;5.28;2.20;;;12.80;99.90;;;;;;6159057;23;20164;-83
2022/05/20 04:33:03;;;;;;;5.05;3.10;;;;;;;;;;6158075;23;20251;-85
2022/05/20 04:35:29;;;;;;;3.47;1.95;;;12.80;99.90;;;;;;6133630;23;20165;-83
2022/05/20 04:37:55;;;;;;;3.75;2.03;;;12.40;99.90;;;;;;6185046;23;20878;-86
2022/05/20 04:40:21;;;;;;;3.88;2.00;;;;;;;;;;6184898;23;20511;-83
2022/05/20 04:48:15;;;;;;;2.50;1.92;;;13.70;99.90;;;;;;6184344;23;20179;-84
2022/05/20 04:50:41;;;;;;;3.90;2.00;;;13.30;99.90;;;;;;6185730;23;20612;-84
2022/05/20 04:53:07;;;;;;;3.35;1.55;;;13.70;99.90;;;;;;6159236;23;20588;-84
2022/05/20 04:55:33;;;;;;;2.42;2.03;;;14.00;99.90;;;;;;6187022;23;20191;-85
2022/05/20 04:57:59;;;;;;;4.40;2.30;;;14.00;99.90;;;;;;6135622;23;20157;-85
2022/05/20 05:00:28;;;;;;;3.35;1.95;;;14.10;99.90;;;;;;6158018;23;20206;-85
2022/05/20 05:02:54;;;;;;;2.85;1.90;;;14.20;99.90;;;;;;6182922;23;20772;-83
2022/05/20 05:05:23;;;;;;;4.03;2.00;;;14.70;99.90;;;;;;6182753;23;20306;-84
2022/05/20 05:07:51;;;;;;;4.50;2.13;;;14.60;99.90;;;;;;6183346;23;20185;-85
2022/05/20 05:10:20;;;;;;;3.65;2.53;;;14.50;99.90;;;;;;6182347;23;20221;-85
2022/05/20 05:12:46;;;;;;;4.60;2.97;;;14.50;99.90;;;;;;6183375;23;20226;-84
2022/05/20 05:15:13;;;;;;;2.92;2.20;;;14.60;99.90;;;;;;6184327;23;20583;-84
2022/05/20 05:20:25;;;;;;;2.67;2.10;;;14.90;99.90;;;;;;6161585;23;20757;-83
2022/05/20 05:22:55;;;;;;;2.83;1.90;;;15.00;99.90;;;;;;6184583;23;20156;-85
2022/05/20 05:25:26;;;;;;;2.90;1.73;;;15.10;99.90;;;;;;6183689;23;20172;-85
2022/05/20 05:27:53;;;;;;;4.68;2.00;;;15.30;99.90;;;;;;6184345;23;20168;-84
2022/05/20 05:30:19;;;;;;;3.15;1.98;;;15.40;99.90;;;;;;6156390;23;20583;-86
2022/05/20 05:32:45;;;;;;;2.92;2.15;;;15.60;99.90;;;;;;6184091;23;20159;-84
2022/05/20 05:35:18;;;;;;;4.32;1.85;;;15.70;99.90;;;;;;6156601;23;20169;-87
2022/05/20 05:37:44;;;;;;;3.67;1.90;;;16.40;99.90;;;;;;6184803;23;20152;-84
2022/05/20 05:40:13;;;;;;;2.58;2.03;;;16.40;99.90;;;;;;6185750;23;20153;-84
2022/05/20 05:42:41;;;;;;;3.22;2.03;;;16.80;99.90;;;;;;6159630;23;20168;-84
2022/05/20 05:45:08;;;;;;;3.20;2.30;;;16.50;99.90;;;;;;6159750;23;20224;-85
2022/05/20 05:47:33;;;;;;;5.20;2.22;;;16.60;99.90;;;;;;6130012;23;20203;-86
2022/05/20 05:49:59;;;;;;;9.02;2.20;;;16.40;99.90;;;;;;6156629;23;20185;-86
2022/05/20 05:52:25;;;;;;;2.72;1.92;;;16.80;99.90;;;;;;6156027;23;20181;-84
2022/05/20 05:54:50;;;;;;;4.38;2.15;;;16.80;99.90;;;;;;6130005;23;20188;-84
2022/05/20 05:57:16;;;;;;;2.03;1.58;;;17.30;99.90;;;;;;6155556;23;20164;-84
2022/05/20 05:59:42;;;;;;;3.05;1.60;;;;;;;;;;6156363;23;20204;-84
2022/05/20 06:02:08;;;;;;;2.10;1.77;;;17.30;99.90;;;;;;6155734;23;20153;-86
2022/05/20 06:04:34;;;;;;;2.42;1.70;;;;;;;;;;6130367;23;20604;-85
2022/05/20 06:07:00;;;;;;;1.60;1.48;;;17.80;99.90;;;;;;6156445;23;20228;-84
2022/05/20 06:09:26;;;;;;;8.75;2.20;;;17.70;99.90;;;;;;6156158;23;20487;-84
2022/05/20 06:11:52;;;;;;;5.20;1.90;;;18.30;99.90;;;;;;6130377;23;20157;-84
2022/05/20 06:14:18;;;;;;;6.75;1.67;;;17.70;99.90;;;;;;6129645;23;20212;-84
2022/05/20 06:16:44;;;;;;;4.40;1.70;;;;;;;;;;6156433;23;20168;-84
2022/05/20 06:19:10;;;;;;;2.67;1.50;;;;;;;;;;6155592;23;20473;-85
2022/05/20 06:21:37;;;;;;;1.75;1.38;;;18.40;99.90;;;;;;6130622;23;20204;-84
2022/05/20 06:24:04;;;;;;;1.75;1.35;;;18.50;96.50;;;;;;6156037;23;20153;-85
2022/05/20 06:26:31;;;;;;;1.52;1.20;;;18.40;95.00;;;;;;6129889;23;20608;-84
2022/05/20 06:28:57;;;;;;;1.88;1.58;;;18.60;92.00;;;;;;6131646;23;20180;-84
2022/05/20 06:31:22;;;;;;;1.85;1.35;;;18.80;92.00;;;;;;6155746;23;20161;-84
2022/05/20 06:33:48;;;;;;;2.63;1.42;;;18.90;91.10;;;;;;6156280;23;20159;-84
2022/05/20 06:41:42;;;;;;;2.05;1.30;;;19.30;89.90;;;;;;6155974;23;20152;-84
2022/05/20 06:44:08;;;;;;;2.38;1.63;;;19.40;83.00;;;;;;6130190;23;20173;-84
2022/05/20 06:46:34;;;;;;;1.15;1.05;;;19.50;84.70;;;;;;6146551;23;20208;-83
2022/05/20 06:49:00;;;;;;;1.48;1.30;;;19.50;81.00;;;;;;6135068;23;20165;-83
2022/05/20 06:51:30;;;;;;;2.67;1.65;;;19.80;86.90;;;;;;6185539;23;20156;-84
2022/05/20 06:53:58;;;;;;;2.28;1.30;;;20.00;80.90;;;;;;6159914;23;20168;-84
2022/05/20 06:56:27;;;;;;;3.92;1.33;;;19.90;75.30;;;;;;6186331;23;20157;-84
2022/05/20 06:58:54;;;;;;;8.52;1.40;;;19.70;80.50;;;;;;6160135;23;20148;-84
2022/05/20 07:01:20;;;;;;;2.13;1.15;;;20.00;82.90;;;;;;6185579;23;20230;-84
2022/05/20 07:03:46;;;;;;;3.63;1.35;;;;;;;;;;6186721;23;20152;-84
2022/05/20 07:06:13;;;;;;;1.00;0.95;;;20.50;84.90;;;;;;6194115;23;20184;-83
2022/05/20 07:08:39;;;;;;;2.58;1.50;;;19.90;81.80;;;;;;6201254;23;20176;-84
2022/05/20 07:11:06;;;;;;;2.80;1.15;;;20.10;73.40;;;;;;6205695;23;20164;-84
2022/05/20 07:13:32;;;;;;;1.75;1.30;;;19.90;81.90;;;;;;6206499;23;20153;-85
2022/05/20 07:15:58;;;;;;;4.28;1.20;;;20.10;75.20;;;;;;6205979;23;20244;-85
2022/05/20 07:18:26;;;;;;;1.35;1.20;;;20.00;82.80;;;;;;6207603;23;20215;-86
2022/05/20 07:20:51;;;;;;;4.18;1.15;;;19.90;80.70;;;;;;6205415;23;20164;-83
2022/05/20 07:23:17;;;;;;;2.17;1.35;;;;;;;;;;6177526;23;20161;-90
2022/05/20 07:25:43;;;;;;;3.15;1.75;;;;;;;;;;6204360;23;20201;-85
2022/05/20 07:28:09;;;;;;;2.65;1.38;;;20.60;84.40;;;;;;6202836;23;20203;-83
2022/05/20 07:30:36;;;;;;;1.85;1.38;;;21.00;79.60;;;;;;6153345;23;20160;-84
2022/05/20 07:33:02;;;;;;;1.60;1.00;;;20.40;80.10;;;;;;6206293;23;20149;-85
2022/05/20 07:35:29;;;;;;;2.05;1.08;;;20.50;76.90;;;;;;6207476;23;20149;-86
2022/05/20 07:37:55;;;;;;;1.15;1.05;;;20.70;70.80;;;;;;6210700;23;20214;-84
2022/05/20 07:40:22;;;;;;;2.10;1.35;;;20.70;70.80;;;;;;6197652;23;20173;-85
2022/05/20 07:42:47;;;;;;;1.30;1.20;;;20.80;69.90;;;;;;6171462;23;20161;-85
2022/05/20 07:45:15;;;;;;;2.00;1.67;;;21.00;70.70;;;;;;6179286;23;20167;-86
2022/05/20 07:47:41;;;;;;;3.45;1.25;;;20.80;78.60;;;;;;6210474;23;20181;-86
2022/05/20 07:50:07;;;;;;;3.15;1.52;;;21.50;90.10;;;;;;6180519;23;20235;-83
2022/05/20 07:55:27;;;;;;;1.33;1.15;;;20.90;85.50;;;;;;6203365;23;20223;-84
2022/05/20 07:57:54;;;;;;;1.48;1.08;;;20.70;78.80;;;;;;6201237;23;20153;-82
2022/05/20 08:00:21;;;;;;;4.18;1.50;;;21.10;71.60;;;;;;6200626;23;20207;-84
2022/05/20 08:02:48;;;;;;;1.33;1.17;;;21.00;72.30;;;;;;6199109;23;20153;-82
2022/05/20 08:05:17;;;;;;;1.10;1.00;;;20.90;71.90;;;;;;6169812;23;20260;-84
2022/05/20 08:07:45;;;;;;;2.50;1.48;;;20.90;73.00;;;;;;6191895;23;20180;-84
2022/05/20 08:10:24;;;;;;;3.42;1.65;;;21.10;72.10;;;;;;6190160;23;20160;-84
2022/05/20 08:12:50;;;;;;;2.08;1.17;;;21.10;72.50;;;;;;6190155;23;20167;-83
2022/05/20 08:15:16;;;;;;;4.05;1.40;;;21.10;71.30;;;;;;6188568;23;20156;-84
2022/05/20 08:17:43;;;;;;;1.55;1.42;;;21.10;71.30;;;;;;6187460;23;20588;-82
2022/05/20 08:20:21;;;;;;;2.03;1.27;;;21.00;72.50;;;;;;6162187;23;20152;-83
2022/05/20 08:22:47;;;;;;;4.28;1.65;;;21.00;72.40;;;;;;6187114;23;20195;-83
2022/05/20 08:25:13;;;;;;;1.20;1.10;;;21.20;77.70;;;;;;6186955;23;20156;-83
2022/05/20 08:27:39;;;;;;;1.35;1.25;;;20.90;72.80;;;;;;6185929;23;20900;-84
2022/05/20 08:30:12;;;;;;;4.22;1.65;;;20.70;73.30;;;;;;6186519;23;20160;-84
2022/05/20 08:32:38;;;;;;;3.42;1.40;;;20.60;73.90;;;;;;6185497;23;20156;-86
2022/05/20 08:35:04;;;;;;;2.13;1.30;;;20.60;73.80;;;;;;6160005;23;20160;-84
2022/05/20 08:37:31;;;;;;;3.25;1.83;;;20.60;74.90;;;;;;6159631;23;20618;-84
2022/05/20 08:39:57;;;;;;;2.70;1.38;;;;;;;;;;6145662;23;20145;-84
2022/05/20 08:42:27;;;;;;;2.45;1.17;;;20.90;73.20;;;;;;6182013;23;20160;-84
2022/05/20 08:44:53;;;;;;;2.17;1.48;;;21.10;73.60;;;;;;6203895;23;20148;-85
2022/05/20 08:47:23;;;;;;;1.50;1.27;;;21.30;73.40;;;;;;6206354;23;20279;-85
2022/05/20 08:49:57;;;;;;;1.98;1.52;;;21.40;72.50;;;;;;6190412;23;20149;-85
2022/05/20 08:52:23;;;;;;;5.53;1.40;;;21.60;73.30;;;;;;6187463;23;20599;-85
2022/05/20 08:54:48;;;;;;;2.70;1.70;;;21.50;71.10;;;;;;6160349;23;20187;-86
2022/05/20 08:57:29;;;;;;;2.92;1.73;;;21.40;72.10;;;;;;6160870;23;20170;-85
2022/05/20 08:59:55;;;;;;;1.85;1.40;;;21.30;72.80;;;;;;6187463;23;20591;-86
2022/05/20 09:02:22;;;;;;;5.43;1.77;;;21.30;74.40;;;;;;6187087;23;20153;-84
2022/05/20 09:04:48;;;;;;;3.20;1.48;;;21.20;76.00;;;;;;6187012;23;20399;-86
2022/05/20 09:07:17;;;;;;;3.90;1.73;;;21.30;76.20;;;;;;6187492;23;20239;-86
2022/05/20 09:09:55;;;;;;;1.20;1.10;;;21.10;82.00;;;;;;6187462;23;20149;-86
2022/05/20 09:12:33;;;;;;;2.08;1.33;;;21.30;77.30;;;;;;6160925;23;20152;-85
2022/05/20 09:18:07;;;;;;;2.58;1.55;;;21.30;73.60;;;;;;6186253;23;20156;-86
2022/05/20 09:20:33;;;;;;;1.73;1.30;;;21.20;73.50;;;;;;6186591;23;20216;-85
2022/05/20 09:23:03;;;;;;;1.80;1.15;;;21.20;73.30;;;;;;6160125;23;20156;-88
2022/05/20 09:25:32;;;;;;;1.92;1.13;;;21.20;73.30;;;;;;6160036;23;20191;-86
2022/05/20 09:28:34;;;;;;;3.00;1.63;;;21.10;73.90;;;;;;6186506;23;20189;-86
2022/05/20 09:31:40;;;;;;;3.58;1.67;;;21.60;78.70;;;;;;6186259;23;20155;-85
2022/05/20 09:34:13;;;;;;;1.77;1.30;;;21.30;73.90;;;;;;6157986;23;20257;-87
2022/05/20 09:36:55;;;;;;;2.45;1.30;;;21.30;74.00;;;;;;6160239;23;20202;-87
2022/05/20 09:39:32;;;;;;;3.08;1.45;;;21.90;74.50;;;;;;6160134;23;20244;-87
2022/05/20 09:42:07;;;;;;;1.98;1.42;;;21.90;75.00;;;;;;6186629;23;20137;-85
2022/05/20 09:44:39;;;;;;;1.48;1.20;;;22.10;71.40;;;;;;6160774;23;20714;-88
2022/05/20 09:47:15;;;;;;;4.68;1.65;;;22.20;73.10;;;;;;6187408;23;20197;-86
2022/05/20 09:49:52;;;;;;;2.20;1.35;;;22.60;75.60;;;;;;6159541;23;20231;-87
2022/05/20 09:52:31;;;;;;;2.10;1.48;;;22.60;72.10;;;;;;6188983;23;20136;-87
2022/05/20 09:55:05;;;;;;;1.35;1.25;;;22.80;72.20;;;;;;6159778;23;20160;-87
2022/05/20 09:57:43;;;;;;;1.67;1.20;;;22.60;71.50;;;;;;6160700;23;20595;-85
2022/05/20 10:00:28;;;;;;;1.33;1.20;;;22.40;73.20;;;;;;6160754;23;20161;-85
2022/05/20 10:03:24;;;;;;;2.22;1.33;;;22.40;72.10;;;;;;6159241;23;20152;-86
2022/05/20 10:05:59;;;;;;;1.98;1.65;;;22.10;73.10;;;;;;6147512;23;20164;-85
2022/05/20 10:08:44;;;;;;;4.72;2.10;;;22.10;73.80;;;;;;6185598;23;20148;-85
2022/05/20 10:11:38;;;;;;;2.72;1.67;;;22.10;74.40;;;;;;6186071;23;20168;-86
2022/05/20 10:14:19;;;;;;;2.00;1.55;;;22.20;74.30;;;;;;6186132;23;20175;-87
2022/05/20 10:17:04;;;;;;;2.10;1.25;;;22.10;74.40;;;;;;6186580;23;20165;-85
2022/05/20 10:19:52;;;;;;;2.40;1.42;;;22.00;74.20;;;;;;6160641;23;20206;-86
2022/05/20 10:22:26;;;;;;;3.80;1.95;;;22.00;75.20;;;;;;6187243;23;20168;-86
2022/05/20 10:25:08;;;;;;;2.58;1.30;;;22.00;75.20;;;;;;6185774;23;20152;-86
2022/05/20 10:28:11;;;;;;;1.52;1.20;;;22.00;74.20;;;;;;6185536;23;20322;-88
2022/05/20 10:33:33;;;;;;;2.60;1.27;;;22.50;75.80;;;;;;6185688;23;20171;-86
2022/05/20 10:36:44;;;;;;;3.22;1.40;;;22.50;75.00;;;;;;6185734;23;20576;-87
2022/05/20 10:39:31;;;;;;;3.20;1.50;;;22.40;75.20;;;;;;6116145;23;20183;-86
2022/05/20 10:42:14;;;;;;;2.28;1.40;;;22.50;75.20;;;;;;6159168;23;20168;-85
2022/05/20 10:50:38;;;;;;;3.25;2.05;;;23.00;75.60;;;;;;6187087;23;20192;-85
2022/05/20 10:53:16;;;;;;;2.58;1.75;;;23.20;76.00;;;;;;6186230;23;20148;-85
2022/05/20 10:55:53;;;;;;;3.22;1.85;;;23.40;75.80;;;;;;6187437;23;20156;-86
2022/05/20 10:58:53;;;;;;;6.25;1.48;;;23.30;76.30;;;;;;6161795;23;20239;-85
2022/05/20 11:01:30;;;;;;;3.33;1.83;;;23.20;76.70;;;;;;6161470;23;20475;-86
2022/05/20 11:04:10;;;;;;;4.50;1.80;;;23.50;77.90;;;;;;6160724;23;20157;-85
2022/05/20 11:06:39;;;;;;;1.67;1.40;;;23.80;77.50;;;;;;6161291;23;20214;-84
2022/05/20 11:09:08;;;;;;;2.42;1.40;;;23.90;76.10;;;;;;6188129;23;20156;-85
2022/05/20 11:11:51;;;;;;;2.22;1.55;;;24.00;76.20;;;;;;6187833;23;20148;-86
2022/05/20 11:14:23;;;;;;;2.72;1.60;;;24.10;76.30;;;;;;6187734;23;20143;-85
2022/05/20 11:17:27;;;;;;;5.53;2.17;;;24.30;75.50;;;;;;6187334;23;20180;-85
2022/05/20 11:20:07;;;;;;;2.45;1.77;;;24.50;76.50;;;;;;6117776;23;20156;-88
2022/05/20 11:22:42;;;;;;;3.17;1.75;;;24.70;75.60;;;;;;6187755;23;20146;-86
2022/05/20 11:25:38;;;;;;;4.05;1.60;;;24.80;74.60;;;;;;6160765;23;20164;-86
2022/05/20 11:28:13;;;;;;;10.02;2.75;;;25.00;75.30;;;;;;6187214;23;20442;-85
2022/05/20 11:30:53;;;;;;;3.05;1.98;;;25.10;73.90;;;;;;6187217;23;20520;-85
2022/05/20 11:33:30;;;;;;;6.45;2.15;;;25.00;72.30;;;;;;6161145;23;20152;-86
2022/05/20 11:36:05;;;;;;;5.95;1.70;;;24.90;73.40;;;;;;6186787;23;20232;-85
2022/05/20 11:39:06;;;;;;;2.97;1.95;;;25.00;73.60;;;;;;6187507;23;20148;-86
2022/05/20 11:41:47;;;;;;;3.05;1.80;;;25.10;72.60;;;;;;6161142;23;20156;-87
2022/05/20 11:44:32;;;;;;;5.78;2.00;;;25.20;71.00;;;;;;6187451;23;20166;-86
2022/05/20 11:47:19;;;;;;;3.17;1.75;;;25.10;71.50;;;;;;6186957;23;20196;-86
2022/05/20 11:50:00;;;;;;;3.30;1.70;;;24.90;71.20;;;;;;6161567;23;20165;-87
2022/05/20 11:52:43;;;;;;;1.55;1.42;;;25.20;73.40;;;;;;6186934;23;20477;-84
2022/05/20 11:55:09;;;;;;;2.75;1.92;;;;;;;;;;6187241;23;20140;-85
2022/05/20 11:57:40;;;;;;;2.42;1.92;;;25.40;73.20;;;;;;6186962;23;20236;-85
2022/05/20 12:00:12;;;;;;;5.15;1.83;;;25.00;71.10;;;;;;6186991;23;20140;-87
2022/05/20 12:02:43;;;;;;;2.10;1.90;;;24.80;70.80;;;;;;6186844;23;20157;-87
2022/05/20 12:05:15;;;;;;;2.53;1.75;;;24.70;70.70;;;;;;6186426;23;20200;-85
2022/05/20 12:07:42;;;;;;;3.88;1.80;;;24.80;70.60;;;;;;6160724;23;20227;-86
2022/05/20 12:10:29;;;;;;;7.43;3.08;;;25.00;69.80;;;;;;6160519;23;20212;-86
2022/05/20 12:13:09;;;;;;;4.15;1.88;;;25.10;70.30;;;;;;6186815;23;20211;-87
2022/05/20 12:15:47;;;;;;;3.95;1.80;;;25.10;69.50;;;;;;6187204;23;20219;-85
2022/05/20 12:24:22;;;;;;;6.70;2.35;;;25.20;68.70;;;;;;6186309;23;20207;-85
2022/05/20 12:26:51;;;;;;;5.07;1.85;;;25.40;68.30;;;;;;6204512;23;20171;-86
2022/05/20 12:29:35;;;;;;;6.15;1.60;;;25.40;67.60;;;;;;6205015;23;20180;-86
2022/05/20 12:32:25;;;;;;;5.25;1.85;;;25.50;68.40;;;;;;6187529;23;20155;-87
2022/05/20 12:35:03;;;;;;;3.78;1.90;;;25.60;67.30;;;;;;6169472;23;20215;-85
2022/05/20 12:37:57;;;;;;;4.50;1.85;;;25.70;67.40;;;;;;6187701;23;20148;-87
2022/05/20 12:40:28;;;;;;;3.60;1.88;;;25.70;66.90;;;;;;6131553;23;20201;-85
2022/05/20 12:42:57;;;;;;;2.50;1.90;;;25.60;67.80;;;;;;6186241;23;20294;-85
2022/05/20 12:45:25;;;;;;;2.58;1.70;;;25.60;67.30;;;;;;6159652;23;20153;-84
2022/05/20 12:47:50;;;;;;;1.83;1.52;;;25.60;66.90;;;;;;6185818;23;20172;-86
2022/05/20 12:50:16;;;;;;;2.28;1.70;;;25.50;67.20;;;;;;6186348;23;20153;-86
2022/05/20 12:52:51;;;;;;;3.22;1.63;;;25.70;67.80;;;;;;6159302;23;20157;-83
2022/05/20 12:55:22;;;;;;;2.90;1.65;;;25.70;67.50;;;;;;6186454;23;20148;-85
2022/05/20 12:58:00;;;;;;;4.18;1.85;;;25.80;66.30;;;;;;6160010;23;20170;-85
2022/05/20 13:00:29;;;;;;;1.73;1.60;;;25.90;67.30;;;;;;6186335;23;20441;-84
2022/05/20 13:03:06;;;;;;;4.93;2.13;;;26.10;67.60;;;;;;6190751;23;20156;-83
2022/05/20 13:05:34;;;;;;;3.13;1.58;;;26.30;66.30;;;;;;6189830;23;20153;-84
2022/05/20 13:08:02;;;;;;;2.97;1.75;;;26.30;65.90;;;;;;6189930;23;20181;-85
2022/05/20 13:10:39;;;;;;;3.85;1.60;;;26.40;66.70;;;;;;6187360;23;20160;-84
2022/05/20 13:13:09;;;;;;;3.88;1.88;;;26.40;65.50;;;;;;6186949;23;20172;-84
2022/05/20 13:15:55;;;;;;;3.10;1.77;;;26.40;65.80;;;;;;6188017;23;20163;-84
2022/05/20 13:18:20;;;;;;;6.22;1.65;;;26.40;65.90;;;;;;6187102;23;20148;-83
2022/05/20 13:20:50;;;;;;;2.35;1.70;;;26.40;66.10;;;;;;6187031;23;20594;-83
2022/05/20 13:23:28;;;;;;;2.17;1.70;;;26.40;66.60;;;;;;6187724;23;20275;-85
2022/05/20 13:25:54;;;;;;;1.50;1.40;;;;;;;;;;6160205;23;20195;-88
2022/05/20 13:28:32;;;;;;;1.77;1.50;;;26.50;73.20;;;;;;6159875;23;20184;-87
2022/05/20 13:31:13;;;;;;;3.13;1.90;;;26.50;64.90;;;;;;6159562;23;20156;-87
2022/05/20 13:33:45;;;;;;;2.03;1.50;;;26.50;64.90;;;;;;6187880;23;20141;-88
2022/05/20 13:36:22;;;;;;;3.45;2.17;;;26.50;73.90;;;;;;6186608;23;20164;-87
2022/05/20 13:38:58;;;;;;;6.25;2.20;;;26.50;71.20;;;;;;6185687;23;20180;-86
2022/05/20 13:41:27;;;;;;;1.92;1.40;;;26.50;65.10;;;;;;6184364;23;20751;-86
2022/05/20 13:43:54;;;;;;;1.30;1.20;;;26.50;65.40;;;;;;6158562;23;20536;-86
2022/05/20 13:49:16;;;;;;;1.95;1.30;;;26.60;64.10;;;;;;6184530;23;20201;-86
2022/05/20 13:51:49;;;;;;;3.20;1.05;;;26.20;66.90;;;;;;6184708;23;20148;-85
2022/05/20 13:54:25;;;;;;;1.20;1.10;;;26.50;67.60;;;;;;6183646;23;20661;-83
2022/05/20 13:56:53;;;;;;;1.90;1.13;;;26.50;64.60;;;;;;6184251;23;20145;-85
2022/05/20 13:59:25;;;;;;;1.25;1.13;;;26.70;69.90;;;;;;6159662;23;20153;-84